sensor_id;sensor_type;location;lat;lon;timestamp;P1;durP1;ratioP1;P2;durP2;ratioP2
45764;SDS011;31474;45.332;10.230;2023-11-21T00:02:13;48.38;;;29.20;;
45764;SDS011;31474;45.332;10.230;2023-11-21T00:04:39;49.60;;;30.42;;
45764;SDS011;31474;45.332;10.230;2023-11-21T00:07:04;49.72;;;29.60;;
45764;SDS011;31474;45.332;10.230;2023-11-21T00:09:31;53.63;;;29.88;;
45764;SDS011;31474;45.332;10.230;2023-11-21T00:11:57;50.17;;;31.10;;
45764;SDS011;31474;45.332;10.230;2023-11-21T00:14:24;45.63;;;26.73;;
45764;SDS011;31474;45.332;10.230;2023-11-21T00:16:50;48.85;;;28.95;;
45764;SDS011;31474;45.332;10.230;2023-11-21T00:19:16;47.10;;;29.30;;
45764;SDS011;31474;45.332;10.230;2023-11-21T00:21:42;44.75;;;28.45;;
45764;SDS011;31474;45.332;10.230;2023-11-21T00:24:11;47.72;;;28.65;;
45764;SDS011;31474;45.332;10.230;2023-11-21T00:26:39;44.30;;;26.00;;
45764;SDS011;31474;45.332;10.230;2023-11-21T00:29:05;46.22;;;27.13;;
45764;SDS011;31474;45.332;10.230;2023-11-21T00:31:34;42.53;;;25.27;;
45764;SDS011;31474;45.332;10.230;2023-11-21T00:34:02;45.58;;;27.02;;
45764;SDS011;31474;45.332;10.230;2023-11-21T00:36:30;50.08;;;27.42;;
45764;SDS011;31474;45.332;10.230;2023-11-21T00:38:56;41.67;;;25.25;;
45764;SDS011;31474;45.332;10.230;2023-11-21T00:41:22;58.05;;;28.00;;
45764;SDS011;31474;45.332;10.230;2023-11-21T00:43:48;53.22;;;27.45;;
45764;SDS011;31474;45.332;10.230;2023-11-21T00:46:14;45.53;;;26.55;;
45764;SDS011;31474;45.332;10.230;2023-11-21T00:48:39;47.40;;;27.67;;
45764;SDS011;31474;45.332;10.230;2023-11-21T00:51:05;49.95;;;27.55;;
45764;SDS011;31474;45.332;10.230;2023-11-21T00:53:31;47.10;;;24.48;;
45764;SDS011;31474;45.332;10.230;2023-11-21T00:55:57;44.97;;;26.88;;
45764;SDS011;31474;45.332;10.230;2023-11-21T00:58:23;44.40;;;26.58;;
45764;SDS011;31474;45.332;10.230;2023-11-21T01:00:49;49.20;;;27.00;;
45764;SDS011;31474;45.332;10.230;2023-11-21T01:03:15;38.80;;;24.00;;
45764;SDS011;31474;45.332;10.230;2023-11-21T01:05:41;43.53;;;26.00;;
45764;SDS011;31474;45.332;10.230;2023-11-21T01:08:06;49.15;;;27.33;;
45764;SDS011;31474;45.332;10.230;2023-11-21T01:10:32;44.35;;;26.80;;
45764;SDS011;31474;45.332;10.230;2023-11-21T01:12:59;40.63;;;25.98;;
45764;SDS011;31474;45.332;10.230;2023-11-21T01:15:25;43.13;;;27.17;;
45764;SDS011;31474;45.332;10.230;2023-11-21T01:17:51;56.42;;;28.45;;
45764;SDS011;31474;45.332;10.230;2023-11-21T01:20:17;55.30;;;28.27;;
45764;SDS011;31474;45.332;10.230;2023-11-21T01:22:43;47.15;;;24.55;;
45764;SDS011;31474;45.332;10.230;2023-11-21T01:25:09;46.67;;;26.63;;
45764;SDS011;31474;45.332;10.230;2023-11-21T01:27:36;42.47;;;24.92;;
45764;SDS011;31474;45.332;10.230;2023-11-21T01:30:02;42.97;;;24.60;;
45764;SDS011;31474;45.332;10.230;2023-11-21T01:32:28;46.50;;;24.42;;
45764;SDS011;31474;45.332;10.230;2023-11-21T01:34:54;40.83;;;23.67;;
45764;SDS011;31474;45.332;10.230;2023-11-21T01:37:23;48.28;;;24.52;;
45764;SDS011;31474;45.332;10.230;2023-11-21T01:39:49;43.42;;;24.35;;
45764;SDS011;31474;45.332;10.230;2023-11-21T01:42:14;51.38;;;26.73;;
45764;SDS011;31474;45.332;10.230;2023-11-21T01:44:40;38.92;;;22.75;;
45764;SDS011;31474;45.332;10.230;2023-11-21T01:47:06;43.83;;;25.42;;
45764;SDS011;31474;45.332;10.230;2023-11-21T01:49:33;40.80;;;24.88;;
45764;SDS011;31474;45.332;10.230;2023-11-21T01:51:59;46.30;;;24.65;;
45764;SDS011;31474;45.332;10.230;2023-11-21T01:54:25;43.03;;;24.17;;
45764;SDS011;31474;45.332;10.230;2023-11-21T01:56:51;38.05;;;24.50;;
45764;SDS011;31474;45.332;10.230;2023-11-21T01:59:18;45.58;;;24.83;;
45764;SDS011;31474;45.332;10.230;2023-11-21T02:01:48;39.30;;;24.38;;
45764;SDS011;31474;45.332;10.230;2023-11-21T02:04:15;44.47;;;25.17;;
45764;SDS011;31474;45.332;10.230;2023-11-21T02:06:41;38.80;;;24.38;;
45764;SDS011;31474;45.332;10.230;2023-11-21T02:09:06;43.83;;;23.92;;
45764;SDS011;31474;45.332;10.230;2023-11-21T02:11:33;42.95;;;25.20;;
45764;SDS011;31474;45.332;10.230;2023-11-21T02:14:00;41.40;;;24.23;;
45764;SDS011;31474;45.332;10.230;2023-11-21T02:16:26;44.03;;;24.08;;
45764;SDS011;31474;45.332;10.230;2023-11-21T02:18:52;44.15;;;26.00;;
45764;SDS011;31474;45.332;10.230;2023-11-21T02:21:18;45.83;;;25.20;;
45764;SDS011;31474;45.332;10.230;2023-11-21T02:23:44;52.20;;;27.67;;
45764;SDS011;31474;45.332;10.230;2023-11-21T02:26:11;41.63;;;24.10;;
45764;SDS011;31474;45.332;10.230;2023-11-21T02:28:38;44.20;;;25.05;;
45764;SDS011;31474;45.332;10.230;2023-11-21T02:31:05;47.08;;;25.35;;
45764;SDS011;31474;45.332;10.230;2023-11-21T02:33:30;42.05;;;24.35;;
45764;SDS011;31474;45.332;10.230;2023-11-21T02:35:59;46.03;;;23.98;;
45764;SDS011;31474;45.332;10.230;2023-11-21T02:38:25;46.00;;;25.30;;
45764;SDS011;31474;45.332;10.230;2023-11-21T02:40:51;44.10;;;26.63;;
45764;SDS011;31474;45.332;10.230;2023-11-21T02:43:16;42.92;;;26.15;;
45764;SDS011;31474;45.332;10.230;2023-11-21T02:45:42;44.88;;;26.60;;
45764;SDS011;31474;45.332;10.230;2023-11-21T02:48:08;51.30;;;27.77;;
45764;SDS011;31474;45.332;10.230;2023-11-21T02:50:34;43.72;;;25.38;;
45764;SDS011;31474;45.332;10.230;2023-11-21T02:53:00;43.85;;;23.85;;
45764;SDS011;31474;45.332;10.230;2023-11-21T02:55:26;41.08;;;24.10;;
45764;SDS011;31474;45.332;10.230;2023-11-21T02:57:53;43.83;;;26.30;;
45764;SDS011;31474;45.332;10.230;2023-11-21T03:00:21;46.03;;;25.88;;
45764;SDS011;31474;45.332;10.230;2023-11-21T03:02:49;43.00;;;24.92;;
45764;SDS011;31474;45.332;10.230;2023-11-21T03:05:15;46.78;;;25.40;;
45764;SDS011;31474;45.332;10.230;2023-11-21T03:07:40;42.58;;;27.45;;
45764;SDS011;31474;45.332;10.230;2023-11-21T03:10:06;45.58;;;26.05;;
45764;SDS011;31474;45.332;10.230;2023-11-21T03:12:36;49.35;;;26.15;;
45764;SDS011;31474;45.332;10.230;2023-11-21T03:15:02;45.35;;;26.10;;
45764;SDS011;31474;45.332;10.230;2023-11-21T03:17:30;48.65;;;26.13;;
45764;SDS011;31474;45.332;10.230;2023-11-21T03:19:56;42.92;;;25.98;;
45764;SDS011;31474;45.332;10.230;2023-11-21T03:22:22;47.80;;;27.23;;
45764;SDS011;31474;45.332;10.230;2023-11-21T03:24:48;50.42;;;27.92;;
45764;SDS011;31474;45.332;10.230;2023-11-21T03:27:14;53.03;;;29.05;;
45764;SDS011;31474;45.332;10.230;2023-11-21T03:29:39;60.28;;;28.52;;
45764;SDS011;31474;45.332;10.230;2023-11-21T03:32:05;54.72;;;29.02;;
45764;SDS011;31474;45.332;10.230;2023-11-21T03:34:32;54.90;;;29.02;;
45764;SDS011;31474;45.332;10.230;2023-11-21T03:36:57;58.60;;;29.50;;
45764;SDS011;31474;45.332;10.230;2023-11-21T03:39:23;51.83;;;29.63;;
45764;SDS011;31474;45.332;10.230;2023-11-21T03:41:50;64.05;;;30.98;;
45764;SDS011;31474;45.332;10.230;2023-11-21T03:44:17;55.22;;;30.15;;
45764;SDS011;31474;45.332;10.230;2023-11-21T03:46:43;61.45;;;30.88;;
45764;SDS011;31474;45.332;10.230;2023-11-21T03:49:09;56.20;;;29.83;;
45764;SDS011;31474;45.332;10.230;2023-11-21T03:51:36;61.60;;;31.27;;
45764;SDS011;31474;45.332;10.230;2023-11-21T03:54:02;58.63;;;29.63;;
45764;SDS011;31474;45.332;10.230;2023-11-21T03:56:28;54.92;;;30.13;;
45764;SDS011;31474;45.332;10.230;2023-11-21T03:58:53;46.78;;;30.20;;
45764;SDS011;31474;45.332;10.230;2023-11-21T04:01:22;58.15;;;28.75;;
45764;SDS011;31474;45.332;10.230;2023-11-21T04:03:48;53.88;;;30.00;;
45764;SDS011;31474;45.332;10.230;2023-11-21T04:06:14;58.35;;;28.17;;
45764;SDS011;31474;45.332;10.230;2023-11-21T04:08:40;49.53;;;28.35;;
45764;SDS011;31474;45.332;10.230;2023-11-21T04:11:06;50.65;;;27.10;;
45764;SDS011;31474;45.332;10.230;2023-11-21T04:13:31;48.53;;;27.63;;
45764;SDS011;31474;45.332;10.230;2023-11-21T04:15:57;48.03;;;27.77;;
45764;SDS011;31474;45.332;10.230;2023-11-21T04:18:23;49.58;;;27.92;;
45764;SDS011;31474;45.332;10.230;2023-11-21T04:20:49;48.15;;;28.55;;
45764;SDS011;31474;45.332;10.230;2023-11-21T04:23:14;47.67;;;27.95;;
45764;SDS011;31474;45.332;10.230;2023-11-21T04:25:41;48.22;;;25.70;;
45764;SDS011;31474;45.332;10.230;2023-11-21T04:28:06;52.20;;;27.35;;
45764;SDS011;31474;45.332;10.230;2023-11-21T04:30:32;50.97;;;28.77;;
45764;SDS011;31474;45.332;10.230;2023-11-21T04:32:58;47.28;;;27.67;;
45764;SDS011;31474;45.332;10.230;2023-11-21T04:35:24;48.53;;;26.55;;
45764;SDS011;31474;45.332;10.230;2023-11-21T04:37:49;47.35;;;27.13;;
45764;SDS011;31474;45.332;10.230;2023-11-21T04:40:16;48.35;;;26.33;;
45764;SDS011;31474;45.332;10.230;2023-11-21T04:42:42;51.28;;;29.33;;
45764;SDS011;31474;45.332;10.230;2023-11-21T04:45:08;46.00;;;26.55;;
45764;SDS011;31474;45.332;10.230;2023-11-21T04:47:34;49.83;;;29.45;;
45764;SDS011;31474;45.332;10.230;2023-11-21T04:50:01;64.75;;;28.42;;
45764;SDS011;31474;45.332;10.230;2023-11-21T04:52:28;46.90;;;25.67;;
45764;SDS011;31474;45.332;10.230;2023-11-21T04:54:54;48.55;;;27.92;;
45764;SDS011;31474;45.332;10.230;2023-11-21T04:57:20;48.10;;;26.63;;
45764;SDS011;31474;45.332;10.230;2023-11-21T04:59:46;45.70;;;25.65;;
45764;SDS011;31474;45.332;10.230;2023-11-21T05:02:13;45.78;;;27.23;;
45764;SDS011;31474;45.332;10.230;2023-11-21T05:04:39;47.83;;;26.65;;
45764;SDS011;31474;45.332;10.230;2023-11-21T05:07:05;50.72;;;26.73;;
45764;SDS011;31474;45.332;10.230;2023-11-21T05:09:30;46.35;;;25.85;;
45764;SDS011;31474;45.332;10.230;2023-11-21T05:11:57;49.40;;;27.65;;
45764;SDS011;31474;45.332;10.230;2023-11-21T05:14:23;46.75;;;26.60;;
45764;SDS011;31474;45.332;10.230;2023-11-21T05:16:48;47.00;;;28.58;;
45764;SDS011;31474;45.332;10.230;2023-11-21T05:19:16;47.00;;;27.50;;
45764;SDS011;31474;45.332;10.230;2023-11-21T05:21:41;46.05;;;26.38;;
45764;SDS011;31474;45.332;10.230;2023-11-21T05:24:07;45.97;;;26.55;;
45764;SDS011;31474;45.332;10.230;2023-11-21T05:26:33;51.80;;;28.48;;
45764;SDS011;31474;45.332;10.230;2023-11-21T05:28:58;46.45;;;26.98;;
45764;SDS011;31474;45.332;10.230;2023-11-21T05:31:24;45.92;;;27.70;;
45764;SDS011;31474;45.332;10.230;2023-11-21T05:33:50;53.40;;;27.65;;
45764;SDS011;31474;45.332;10.230;2023-11-21T05:36:15;46.80;;;28.65;;
45764;SDS011;31474;45.332;10.230;2023-11-21T05:38:41;48.38;;;28.50;;
45764;SDS011;31474;45.332;10.230;2023-11-21T05:41:07;50.80;;;27.73;;
45764;SDS011;31474;45.332;10.230;2023-11-21T05:43:36;51.08;;;27.92;;
45764;SDS011;31474;45.332;10.230;2023-11-21T05:46:01;52.17;;;27.17;;
45764;SDS011;31474;45.332;10.230;2023-11-21T05:48:27;52.05;;;28.58;;
45764;SDS011;31474;45.332;10.230;2023-11-21T05:50:53;48.70;;;28.95;;
45764;SDS011;31474;45.332;10.230;2023-11-21T05:53:18;48.33;;;27.50;;
45764;SDS011;31474;45.332;10.230;2023-11-21T05:55:44;49.80;;;28.63;;
45764;SDS011;31474;45.332;10.230;2023-11-21T05:58:10;44.90;;;26.88;;
45764;SDS011;31474;45.332;10.230;2023-11-21T06:00:35;49.83;;;28.27;;
45764;SDS011;31474;45.332;10.230;2023-11-21T06:03:02;49.67;;;26.50;;
45764;SDS011;31474;45.332;10.230;2023-11-21T06:05:28;49.35;;;28.30;;
45764;SDS011;31474;45.332;10.230;2023-11-21T06:07:54;47.67;;;29.00;;
45764;SDS011;31474;45.332;10.230;2023-11-21T06:10:23;52.00;;;30.02;;
45764;SDS011;31474;45.332;10.230;2023-11-21T06:12:49;47.78;;;28.67;;
45764;SDS011;31474;45.332;10.230;2023-11-21T06:15:15;54.05;;;29.67;;
45764;SDS011;31474;45.332;10.230;2023-11-21T06:17:44;53.45;;;29.15;;
45764;SDS011;31474;45.332;10.230;2023-11-21T06:20:14;57.00;;;29.48;;
45764;SDS011;31474;45.332;10.230;2023-11-21T06:22:41;51.47;;;30.45;;
45764;SDS011;31474;45.332;10.230;2023-11-21T06:25:07;50.05;;;28.58;;
45764;SDS011;31474;45.332;10.230;2023-11-21T06:27:37;51.83;;;29.65;;
45764;SDS011;31474;45.332;10.230;2023-11-21T06:30:05;50.88;;;29.83;;
45764;SDS011;31474;45.332;10.230;2023-11-21T06:32:31;55.58;;;31.60;;
45764;SDS011;31474;45.332;10.230;2023-11-21T06:34:57;50.03;;;30.13;;
45764;SDS011;31474;45.332;10.230;2023-11-21T06:37:25;53.67;;;29.67;;
45764;SDS011;31474;45.332;10.230;2023-11-21T06:39:52;54.80;;;30.75;;
45764;SDS011;31474;45.332;10.230;2023-11-21T06:42:18;53.78;;;30.60;;
45764;SDS011;31474;45.332;10.230;2023-11-21T06:44:47;51.75;;;30.40;;
45764;SDS011;31474;45.332;10.230;2023-11-21T06:47:22;57.85;;;30.80;;
45764;SDS011;31474;45.332;10.230;2023-11-21T06:49:51;53.45;;;30.17;;
45764;SDS011;31474;45.332;10.230;2023-11-21T06:52:18;65.13;;;31.25;;
45764;SDS011;31474;45.332;10.230;2023-11-21T06:54:43;51.60;;;31.42;;
45764;SDS011;31474;45.332;10.230;2023-11-21T06:57:10;61.97;;;34.38;;
45764;SDS011;31474;45.332;10.230;2023-11-21T06:59:36;67.97;;;36.45;;
45764;SDS011;31474;45.332;10.230;2023-11-21T07:02:02;58.75;;;32.13;;
45764;SDS011;31474;45.332;10.230;2023-11-21T07:04:28;54.88;;;34.22;;
45764;SDS011;31474;45.332;10.230;2023-11-21T07:06:53;59.30;;;34.10;;
45764;SDS011;31474;45.332;10.230;2023-11-21T07:09:20;50.78;;;31.45;;
45764;SDS011;31474;45.332;10.230;2023-11-21T07:11:50;53.40;;;30.30;;
45764;SDS011;31474;45.332;10.230;2023-11-21T07:14:17;49.88;;;30.33;;
45764;SDS011;31474;45.332;10.230;2023-11-21T07:16:44;58.25;;;31.15;;
45764;SDS011;31474;45.332;10.230;2023-11-21T07:19:11;50.65;;;30.23;;
45764;SDS011;31474;45.332;10.230;2023-11-21T07:21:37;46.70;;;27.85;;
45764;SDS011;31474;45.332;10.230;2023-11-21T07:24:04;54.22;;;30.20;;
45764;SDS011;31474;45.332;10.230;2023-11-21T07:26:31;49.30;;;28.00;;
45764;SDS011;31474;45.332;10.230;2023-11-21T07:29:01;49.05;;;30.52;;
45764;SDS011;31474;45.332;10.230;2023-11-21T07:31:27;47.92;;;30.65;;
45764;SDS011;31474;45.332;10.230;2023-11-21T07:33:54;49.15;;;29.77;;
45764;SDS011;31474;45.332;10.230;2023-11-21T07:36:22;49.78;;;30.20;;
45764;SDS011;31474;45.332;10.230;2023-11-21T07:38:48;49.58;;;28.45;;
45764;SDS011;31474;45.332;10.230;2023-11-21T07:41:14;48.20;;;29.10;;
45764;SDS011;31474;45.332;10.230;2023-11-21T07:43:41;53.25;;;30.83;;
45764;SDS011;31474;45.332;10.230;2023-11-21T07:46:07;50.47;;;30.98;;
45764;SDS011;31474;45.332;10.230;2023-11-21T07:48:33;51.72;;;31.65;;
45764;SDS011;31474;45.332;10.230;2023-11-21T07:51:00;50.40;;;30.80;;
45764;SDS011;31474;45.332;10.230;2023-11-21T07:53:28;54.13;;;32.15;;
45764;SDS011;31474;45.332;10.230;2023-11-21T07:56:04;50.85;;;32.60;;
45764;SDS011;31474;45.332;10.230;2023-11-21T07:58:30;50.85;;;30.42;;
45764;SDS011;31474;45.332;10.230;2023-11-21T08:00:58;54.20;;;31.05;;
45764;SDS011;31474;45.332;10.230;2023-11-21T08:03:24;49.78;;;29.77;;
45764;SDS011;31474;45.332;10.230;2023-11-21T08:05:51;52.53;;;30.77;;
45764;SDS011;31474;45.332;10.230;2023-11-21T08:08:17;53.55;;;31.20;;
45764;SDS011;31474;45.332;10.230;2023-11-21T08:10:43;59.03;;;32.92;;
45764;SDS011;31474;45.332;10.230;2023-11-21T08:13:13;58.50;;;32.83;;
45764;SDS011;31474;45.332;10.230;2023-11-21T08:15:40;57.97;;;32.17;;
45764;SDS011;31474;45.332;10.230;2023-11-21T08:18:11;56.53;;;34.03;;
45764;SDS011;31474;45.332;10.230;2023-11-21T08:20:37;54.13;;;29.85;;
45764;SDS011;31474;45.332;10.230;2023-11-21T08:23:04;47.80;;;31.73;;
45764;SDS011;31474;45.332;10.230;2023-11-21T08:25:31;54.65;;;32.80;;
45764;SDS011;31474;45.332;10.230;2023-11-21T08:28:00;60.65;;;32.88;;
45764;SDS011;31474;45.332;10.230;2023-11-21T08:30:26;57.70;;;32.15;;
45764;SDS011;31474;45.332;10.230;2023-11-21T08:32:54;56.08;;;32.15;;
45764;SDS011;31474;45.332;10.230;2023-11-21T08:35:23;82.80;;;34.65;;
45764;SDS011;31474;45.332;10.230;2023-11-21T08:37:51;62.47;;;35.72;;
45764;SDS011;31474;45.332;10.230;2023-11-21T08:40:18;56.03;;;33.90;;
45764;SDS011;31474;45.332;10.230;2023-11-21T08:42:45;55.42;;;31.75;;
45764;SDS011;31474;45.332;10.230;2023-11-21T08:45:11;55.50;;;33.42;;
45764;SDS011;31474;45.332;10.230;2023-11-21T08:47:38;58.45;;;33.13;;
45764;SDS011;31474;45.332;10.230;2023-11-21T08:50:05;54.50;;;32.17;;
45764;SDS011;31474;45.332;10.230;2023-11-21T08:52:32;54.35;;;31.98;;
45764;SDS011;31474;45.332;10.230;2023-11-21T08:54:59;67.63;;;35.22;;
45764;SDS011;31474;45.332;10.230;2023-11-21T08:57:27;65.38;;;32.85;;
45764;SDS011;31474;45.332;10.230;2023-11-21T08:59:53;56.50;;;33.22;;
45764;SDS011;31474;45.332;10.230;2023-11-21T09:02:25;57.95;;;32.10;;
45764;SDS011;31474;45.332;10.230;2023-11-21T09:04:51;53.35;;;31.92;;
45764;SDS011;31474;45.332;10.230;2023-11-21T09:07:20;57.42;;;31.88;;
45764;SDS011;31474;45.332;10.230;2023-11-21T09:09:47;49.38;;;32.40;;
45764;SDS011;31474;45.332;10.230;2023-11-21T09:12:13;56.72;;;32.78;;
45764;SDS011;31474;45.332;10.230;2023-11-21T09:14:38;59.25;;;32.90;;
45764;SDS011;31474;45.332;10.230;2023-11-21T09:17:04;52.50;;;32.50;;
45764;SDS011;31474;45.332;10.230;2023-11-21T09:19:36;61.80;;;31.55;;
45764;SDS011;31474;45.332;10.230;2023-11-21T09:22:02;51.80;;;31.92;;
45764;SDS011;31474;45.332;10.230;2023-11-21T09:24:30;51.80;;;31.30;;
45764;SDS011;31474;45.332;10.230;2023-11-21T09:26:56;50.42;;;31.67;;
45764;SDS011;31474;45.332;10.230;2023-11-21T09:29:21;54.03;;;31.73;;
45764;SDS011;31474;45.332;10.230;2023-11-21T09:31:47;48.28;;;30.08;;
45764;SDS011;31474;45.332;10.230;2023-11-21T09:34:15;53.85;;;29.50;;
45764;SDS011;31474;45.332;10.230;2023-11-21T09:36:40;48.78;;;30.20;;
45764;SDS011;31474;45.332;10.230;2023-11-21T09:39:06;52.25;;;29.90;;
45764;SDS011;31474;45.332;10.230;2023-11-21T09:41:37;45.47;;;30.75;;
45764;SDS011;31474;45.332;10.230;2023-11-21T09:44:09;54.70;;;31.42;;
45764;SDS011;31474;45.332;10.230;2023-11-21T09:46:42;45.45;;;28.75;;
45764;SDS011;31474;45.332;10.230;2023-11-21T09:49:10;55.92;;;31.48;;
45764;SDS011;31474;45.332;10.230;2023-11-21T09:51:42;37.85;;;24.92;;
45764;SDS011;31474;45.332;10.230;2023-11-21T09:54:09;47.03;;;27.77;;
45764;SDS011;31474;45.332;10.230;2023-11-21T09:56:37;41.25;;;25.27;;
45764;SDS011;31474;45.332;10.230;2023-11-21T09:59:03;43.15;;;27.05;;
45764;SDS011;31474;45.332;10.230;2023-11-21T10:01:32;39.90;;;25.42;;
45764;SDS011;31474;45.332;10.230;2023-11-21T10:04:00;53.55;;;30.17;;
45764;SDS011;31474;45.332;10.230;2023-11-21T10:06:26;37.28;;;26.80;;
45764;SDS011;31474;45.332;10.230;2023-11-21T10:08:55;45.85;;;28.27;;
45764;SDS011;31474;45.332;10.230;2023-11-21T10:11:25;40.65;;;26.17;;
45764;SDS011;31474;45.332;10.230;2023-11-21T10:13:53;47.40;;;28.13;;
45764;SDS011;31474;45.332;10.230;2023-11-21T10:16:22;40.25;;;25.75;;
45764;SDS011;31474;45.332;10.230;2023-11-21T10:18:51;44.30;;;26.25;;
45764;SDS011;31474;45.332;10.230;2023-11-21T10:21:20;49.13;;;29.52;;
45764;SDS011;31474;45.332;10.230;2023-11-21T10:23:46;41.47;;;24.90;;
45764;SDS011;31474;45.332;10.230;2023-11-21T10:26:12;53.03;;;30.27;;
45764;SDS011;31474;45.332;10.230;2023-11-21T10:28:41;42.03;;;24.15;;
45764;SDS011;31474;45.332;10.230;2023-11-21T10:31:20;61.70;;;31.30;;
45764;SDS011;31474;45.332;10.230;2023-11-21T10:33:46;36.92;;;24.25;;
45764;SDS011;31474;45.332;10.230;2023-11-21T10:36:12;48.72;;;29.40;;
45764;SDS011;31474;45.332;10.230;2023-11-21T10:38:41;43.17;;;25.90;;
45764;SDS011;31474;45.332;10.230;2023-11-21T10:41:10;47.83;;;26.65;;
45764;SDS011;31474;45.332;10.230;2023-11-21T10:43:40;44.20;;;25.00;;
45764;SDS011;31474;45.332;10.230;2023-11-21T10:46:06;36.67;;;25.02;;
45764;SDS011;31474;45.332;10.230;2023-11-21T10:48:32;50.08;;;27.52;;
45764;SDS011;31474;45.332;10.230;2023-11-21T10:51:00;37.15;;;24.45;;
45764;SDS011;31474;45.332;10.230;2023-11-21T10:53:32;40.60;;;23.33;;
45764;SDS011;31474;45.332;10.230;2023-11-21T10:56:05;37.90;;;24.02;;
45764;SDS011;31474;45.332;10.230;2023-11-21T10:58:33;51.38;;;28.98;;
45764;SDS011;31474;45.332;10.230;2023-11-21T11:01:02;44.70;;;25.38;;
45764;SDS011;31474;45.332;10.230;2023-11-21T11:03:31;56.60;;;28.98;;
45764;SDS011;31474;45.332;10.230;2023-11-21T11:05:58;38.58;;;25.92;;
45764;SDS011;31474;45.332;10.230;2023-11-21T11:08:25;58.38;;;28.85;;
45764;SDS011;31474;45.332;10.230;2023-11-21T11:10:52;43.88;;;25.85;;
45764;SDS011;31474;45.332;10.230;2023-11-21T11:13:18;50.70;;;28.27;;
45764;SDS011;31474;45.332;10.230;2023-11-21T11:15:47;39.92;;;25.45;;
45764;SDS011;31474;45.332;10.230;2023-11-21T11:18:13;58.83;;;29.60;;
45764;SDS011;31474;45.332;10.230;2023-11-21T11:20:40;44.33;;;27.60;;
45764;SDS011;31474;45.332;10.230;2023-11-21T11:26:24;42.30;;;27.08;;
45764;SDS011;31474;45.332;10.230;2023-11-21T11:34:30;65.75;;;33.05;;
45764;SDS011;31474;45.332;10.230;2023-11-21T11:37:02;45.38;;;25.20;;
45764;SDS011;31474;45.332;10.230;2023-11-21T11:39:30;46.88;;;27.92;;
45764;SDS011;31474;45.332;10.230;2023-11-21T11:42:02;55.50;;;29.33;;
45764;SDS011;31474;45.332;10.230;2023-11-21T11:47:26;43.58;;;24.13;;
45764;SDS011;31474;45.332;10.230;2023-11-21T11:50:09;51.00;;;25.17;;
45764;SDS011;31474;45.332;10.230;2023-11-21T11:52:48;36.10;;;20.60;;
45764;SDS011;31474;45.332;10.230;2023-11-21T11:55:20;53.65;;;24.80;;
45764;SDS011;31474;45.332;10.230;2023-11-21T11:57:49;39.67;;;22.33;;
45764;SDS011;31474;45.332;10.230;2023-11-21T12:00:19;48.10;;;24.50;;
45764;SDS011;31474;45.332;10.230;2023-11-21T12:02:48;41.50;;;22.23;;
45764;SDS011;31474;45.332;10.230;2023-11-21T12:05:15;50.08;;;26.38;;
45764;SDS011;31474;45.332;10.230;2023-11-21T12:07:49;36.72;;;23.08;;
45764;SDS011;31474;45.332;10.230;2023-11-21T12:10:18;42.08;;;23.08;;
45764;SDS011;31474;45.332;10.230;2023-11-21T12:12:49;40.65;;;21.73;;
45764;SDS011;31474;45.332;10.230;2023-11-21T12:15:19;52.45;;;25.67;;
45764;SDS011;31474;45.332;10.230;2023-11-21T12:17:46;41.13;;;22.83;;
45764;SDS011;31474;45.332;10.230;2023-11-21T12:20:14;41.70;;;24.10;;
45764;SDS011;31474;45.332;10.230;2023-11-21T12:22:49;45.47;;;24.35;;
45764;SDS011;31474;45.332;10.230;2023-11-21T12:25:16;48.17;;;25.20;;
45764;SDS011;31474;45.332;10.230;2023-11-21T12:27:48;52.78;;;26.63;;
45764;SDS011;31474;45.332;10.230;2023-11-21T12:30:15;38.65;;;23.98;;
45764;SDS011;31474;45.332;10.230;2023-11-21T12:32:43;51.25;;;26.70;;
45764;SDS011;31474;45.332;10.230;2023-11-21T12:35:11;45.65;;;23.75;;
45764;SDS011;31474;45.332;10.230;2023-11-21T12:37:40;60.83;;;26.50;;
45764;SDS011;31474;45.332;10.230;2023-11-21T12:40:09;33.07;;;22.27;;
45764;SDS011;31474;45.332;10.230;2023-11-21T12:42:40;54.28;;;27.92;;
45764;SDS011;31474;45.332;10.230;2023-11-21T12:47:52;53.50;;;26.25;;
45764;SDS011;31474;45.332;10.230;2023-11-21T12:50:28;43.42;;;23.83;;
45764;SDS011;31474;45.332;10.230;2023-11-21T12:53:05;58.50;;;27.80;;
45764;SDS011;31474;45.332;10.230;2023-11-21T12:55:33;37.50;;;23.88;;
45764;SDS011;31474;45.332;10.230;2023-11-21T12:58:03;87.20;;;40.58;;
45764;SDS011;31474;45.332;10.230;2023-11-21T13:00:36;68.35;;;30.90;;
45764;SDS011;31474;45.332;10.230;2023-11-21T13:03:08;64.90;;;31.65;;
45764;SDS011;31474;45.332;10.230;2023-11-21T13:05:38;42.15;;;24.75;;
45764;SDS011;31474;45.332;10.230;2023-11-21T13:08:08;43.47;;;27.17;;
45764;SDS011;31474;45.332;10.230;2023-11-21T13:10:37;52.50;;;28.95;;
45764;SDS011;31474;45.332;10.230;2023-11-21T13:13:09;40.50;;;26.05;;
45764;SDS011;31474;45.332;10.230;2023-11-21T13:15:39;54.83;;;28.90;;
45764;SDS011;31474;45.332;10.230;2023-11-21T13:18:08;48.80;;;27.85;;
45764;SDS011;31474;45.332;10.230;2023-11-21T13:20:36;58.20;;;28.77;;
45764;SDS011;31474;45.332;10.230;2023-11-21T13:23:06;63.85;;;31.13;;
45764;SDS011;31474;45.332;10.230;2023-11-21T13:25:33;49.80;;;27.55;;
45764;SDS011;31474;45.332;10.230;2023-11-21T13:27:59;39.38;;;26.13;;
45764;SDS011;31474;45.332;10.230;2023-11-21T13:30:28;52.70;;;30.23;;
45764;SDS011;31474;45.332;10.230;2023-11-21T13:32:58;53.83;;;28.15;;
45764;SDS011;31474;45.332;10.230;2023-11-21T13:35:31;45.30;;;26.27;;
45764;SDS011;31474;45.332;10.230;2023-11-21T13:38:08;55.63;;;29.48;;
45764;SDS011;31474;45.332;10.230;2023-11-21T13:40:38;44.95;;;25.00;;
45764;SDS011;31474;45.332;10.230;2023-11-21T13:43:14;52.42;;;28.38;;
45764;SDS011;31474;45.332;10.230;2023-11-21T13:45:41;45.38;;;25.55;;
45764;SDS011;31474;45.332;10.230;2023-11-21T13:48:09;47.78;;;27.52;;
45764;SDS011;31474;45.332;10.230;2023-11-21T13:50:38;56.85;;;30.23;;
45764;SDS011;31474;45.332;10.230;2023-11-21T13:53:09;55.65;;;28.75;;
45764;SDS011;31474;45.332;10.230;2023-11-21T13:55:45;43.05;;;25.42;;
45764;SDS011;31474;45.332;10.230;2023-11-21T13:58:12;47.35;;;28.08;;
45764;SDS011;31474;45.332;10.230;2023-11-21T14:00:43;51.15;;;27.23;;
45764;SDS011;31474;45.332;10.230;2023-11-21T14:03:17;44.53;;;26.00;;
45764;SDS011;31474;45.332;10.230;2023-11-21T14:05:47;52.78;;;30.33;;
45764;SDS011;31474;45.332;10.230;2023-11-21T14:08:19;45.75;;;26.45;;
45764;SDS011;31474;45.332;10.230;2023-11-21T14:10:53;62.38;;;33.65;;
45764;SDS011;31474;45.332;10.230;2023-11-21T14:13:24;60.20;;;32.42;;
45764;SDS011;31474;45.332;10.230;2023-11-21T14:15:53;53.50;;;30.92;;
45764;SDS011;31474;45.332;10.230;2023-11-21T14:18:27;50.20;;;31.23;;
45764;SDS011;31474;45.332;10.230;2023-11-21T14:20:59;56.85;;;32.92;;
45764;SDS011;31474;45.332;10.230;2023-11-21T14:23:25;53.92;;;30.77;;
45764;SDS011;31474;45.332;10.230;2023-11-21T14:25:50;50.45;;;27.35;;